sensor_id;sensor_type;location;lat;lon;timestamp;P1;durP1;ratioP1;P2;durP2;ratioP2
20423;SDS011;10371;49.042;8.002;2023-04-04T00:00:20;3.80;;;2.27;;
20423;SDS011;10371;49.042;8.002;2023-04-04T00:01:20;2.87;;;2.10;;
20423;SDS011;10371;49.042;8.002;2023-04-04T00:02:20;3.20;;;2.27;;
20423;SDS011;10371;49.042;8.002;2023-04-04T00:03:21;4.77;;;2.30;;
20423;SDS011;10371;49.042;8.002;2023-04-04T00:04:21;2.43;;;2.20;;
20423;SDS011;10371;49.042;8.002;2023-04-04T00:05:21;4.13;;;2.17;;
20423;SDS011;10371;49.042;8.002;2023-04-04T00:06:22;2.77;;;2.10;;
20423;SDS011;10371;49.042;8.002;2023-04-04T00:07:22;3.30;;;2.23;;
20423;SDS011;10371;49.042;8.002;2023-04-04T00:08:22;3.07;;;2.03;;
20423;SDS011;10371;49.042;8.002;2023-04-04T00:09:22;3.60;;;2.40;;
20423;SDS011;10371;49.042;8.002;2023-04-04T00:10:23;2.37;;;2.10;;
20423;SDS011;10371;49.042;8.002;2023-04-04T00:11:25;3.37;;;2.30;;
20423;SDS011;10371;49.042;8.002;2023-04-04T00:12:25;2.30;;;2.10;;
20423;SDS011;10371;49.042;8.002;2023-04-04T00:13:26;2.50;;;2.30;;
20423;SDS011;10371;49.042;8.002;2023-04-04T00:14:27;2.43;;;2.20;;
20423;SDS011;10371;49.042;8.002;2023-04-04T00:15:27;3.30;;;2.47;;
20423;SDS011;10371;49.042;8.002;2023-04-04T00:16:27;2.30;;;2.00;;
20423;SDS011;10371;49.042;8.002;2023-04-04T00:17:27;3.37;;;2.50;;
20423;SDS011;10371;49.042;8.002;2023-04-04T00:18:28;2.60;;;2.00;;
20423;SDS011;10371;49.042;8.002;2023-04-04T00:19:28;3.97;;;2.37;;
20423;SDS011;10371;49.042;8.002;2023-04-04T00:20:29;3.20;;;2.30;;
20423;SDS011;10371;49.042;8.002;2023-04-04T00:21:30;5.30;;;2.60;;
20423;SDS011;10371;49.042;8.002;2023-04-04T00:22:30;2.20;;;2.00;;
20423;SDS011;10371;49.042;8.002;2023-04-04T00:23:31;3.37;;;2.30;;
20423;SDS011;10371;49.042;8.002;2023-04-04T00:24:31;4.20;;;2.20;;
20423;SDS011;10371;49.042;8.002;2023-04-04T00:25:31;2.50;;;2.30;;
20423;SDS011;10371;49.042;8.002;2023-04-04T00:26:31;3.83;;;2.30;;
20423;SDS011;10371;49.042;8.002;2023-04-04T00:27:32;3.13;;;2.00;;
20423;SDS011;10371;49.042;8.002;2023-04-04T00:28:32;3.43;;;2.47;;
20423;SDS011;10371;49.042;8.002;2023-04-04T00:29:32;2.40;;;1.93;;
20423;SDS011;10371;49.042;8.002;2023-04-04T00:30:36;2.07;;;1.87;;
20423;SDS011;10371;49.042;8.002;2023-04-04T00:31:36;2.90;;;2.30;;
20423;SDS011;10371;49.042;8.002;2023-04-04T00:32:37;2.43;;;2.13;;
20423;SDS011;10371;49.042;8.002;2023-04-04T00:33:37;2.47;;;2.10;;
20423;SDS011;10371;49.042;8.002;2023-04-04T00:34:37;2.67;;;2.30;;
20423;SDS011;10371;49.042;8.002;2023-04-04T00:35:38;2.67;;;2.23;;
20423;SDS011;10371;49.042;8.002;2023-04-04T00:36:38;2.77;;;2.17;;
20423;SDS011;10371;49.042;8.002;2023-04-04T00:37:38;3.07;;;2.27;;
20423;SDS011;10371;49.042;8.002;2023-04-04T00:38:38;3.73;;;2.30;;
20423;SDS011;10371;49.042;8.002;2023-04-04T00:39:39;2.90;;;2.40;;
20423;SDS011;10371;49.042;8.002;2023-04-04T00:40:40;2.90;;;2.10;;
20423;SDS011;10371;49.042;8.002;2023-04-04T00:41:42;2.97;;;2.20;;
20423;SDS011;10371;49.042;8.002;2023-04-04T00:42:43;3.40;;;2.40;;
20423;SDS011;10371;49.042;8.002;2023-04-04T00:43:43;3.10;;;2.47;;
20423;SDS011;10371;49.042;8.002;2023-04-04T00:44:44;3.27;;;2.47;;
20423;SDS011;10371;49.042;8.002;2023-04-04T00:45:45;3.80;;;2.50;;
20423;SDS011;10371;49.042;8.002;2023-04-04T00:46:45;2.83;;;2.33;;
20423;SDS011;10371;49.042;8.002;2023-04-04T00:47:45;2.40;;;2.20;;
20423;SDS011;10371;49.042;8.002;2023-04-04T00:48:47;2.93;;;2.20;;
20423;SDS011;10371;49.042;8.002;2023-04-04T00:49:48;3.70;;;2.30;;
20423;SDS011;10371;49.042;8.002;2023-04-04T00:50:48;3.67;;;2.60;;
20423;SDS011;10371;49.042;8.002;2023-04-04T00:51:49;3.80;;;2.57;;
20423;SDS011;10371;49.042;8.002;2023-04-04T00:52:49;3.57;;;2.40;;
20423;SDS011;10371;49.042;8.002;2023-04-04T00:53:50;3.23;;;2.40;;
20423;SDS011;10371;49.042;8.002;2023-04-04T00:54:51;3.50;;;2.53;;
20423;SDS011;10371;49.042;8.002;2023-04-04T00:55:53;4.03;;;2.60;;
20423;SDS011;10371;49.042;8.002;2023-04-04T00:56:54;2.87;;;2.30;;
20423;SDS011;10371;49.042;8.002;2023-04-04T00:57:54;3.93;;;2.40;;
20423;SDS011;10371;49.042;8.002;2023-04-04T00:58:54;2.67;;;2.40;;
20423;SDS011;10371;49.042;8.002;2023-04-04T00:59:56;2.70;;;2.20;;
20423;SDS011;10371;49.042;8.002;2023-04-04T01:00:58;3.77;;;2.47;;
20423;SDS011;10371;49.042;8.002;2023-04-04T01:01:59;4.57;;;2.30;;
20423;SDS011;10371;49.042;8.002;2023-04-04T01:03:00;3.00;;;2.30;;
20423;SDS011;10371;49.042;8.002;2023-04-04T01:04:00;3.27;;;2.30;;
20423;SDS011;10371;49.042;8.002;2023-04-04T01:05:02;4.00;;;2.63;;
20423;SDS011;10371;49.042;8.002;2023-04-04T01:06:03;2.67;;;2.47;;
20423;SDS011;10371;49.042;8.002;2023-04-04T01:07:03;3.70;;;2.60;;
20423;SDS011;10371;49.042;8.002;2023-04-04T01:08:04;2.83;;;2.43;;
20423;SDS011;10371;49.042;8.002;2023-04-04T01:09:05;3.63;;;2.47;;
20423;SDS011;10371;49.042;8.002;2023-04-04T01:10:05;3.20;;;2.63;;
20423;SDS011;10371;49.042;8.002;2023-04-04T01:11:06;3.53;;;2.37;;
20423;SDS011;10371;49.042;8.002;2023-04-04T01:12:07;4.10;;;2.60;;
20423;SDS011;10371;49.042;8.002;2023-04-04T01:13:08;2.57;;;2.37;;
20423;SDS011;10371;49.042;8.002;2023-04-04T01:14:08;3.90;;;2.70;;
20423;SDS011;10371;49.042;8.002;2023-04-04T01:15:09;3.63;;;2.43;;
20423;SDS011;10371;49.042;8.002;2023-04-04T01:16:10;4.30;;;2.70;;
20423;SDS011;10371;49.042;8.002;2023-04-04T01:17:10;3.37;;;2.50;;
20423;SDS011;10371;49.042;8.002;2023-04-04T01:18:12;3.67;;;2.43;;
20423;SDS011;10371;49.042;8.002;2023-04-04T01:19:16;3.37;;;2.40;;
20423;SDS011;10371;49.042;8.002;2023-04-04T01:20:26;3.27;;;2.20;;
20423;SDS011;10371;49.042;8.002;2023-04-04T01:21:29;4.30;;;2.40;;
20423;SDS011;10371;49.042;8.002;2023-04-04T01:22:30;3.00;;;2.60;;
20423;SDS011;10371;49.042;8.002;2023-04-04T01:23:57;4.77;;;2.63;;
20423;SDS011;10371;49.042;8.002;2023-04-04T01:25:00;2.63;;;2.27;;
20423;SDS011;10371;49.042;8.002;2023-04-04T01:26:01;3.90;;;2.37;;
20423;SDS011;10371;49.042;8.002;2023-04-04T01:27:02;2.73;;;2.30;;
20423;SDS011;10371;49.042;8.002;2023-04-04T01:28:02;3.40;;;2.40;;
20423;SDS011;10371;49.042;8.002;2023-04-04T01:29:03;3.53;;;2.50;;
20423;SDS011;10371;49.042;8.002;2023-04-04T01:30:03;3.70;;;2.73;;
20423;SDS011;10371;49.042;8.002;2023-04-04T01:31:06;3.17;;;2.50;;
20423;SDS011;10371;49.042;8.002;2023-04-04T01:32:11;3.10;;;2.47;;
20423;SDS011;10371;49.042;8.002;2023-04-04T01:33:17;3.70;;;2.30;;
20423;SDS011;10371;49.042;8.002;2023-04-04T01:35:45;2.60;;;2.40;;
20423;SDS011;10371;49.042;8.002;2023-04-04T01:37:05;3.30;;;2.53;;
20423;SDS011;10371;49.042;8.002;2023-04-04T01:38:20;3.87;;;2.83;;
20423;SDS011;10371;49.042;8.002;2023-04-04T01:39:55;3.57;;;2.47;;
20423;SDS011;10371;49.042;8.002;2023-04-04T01:41:05;2.53;;;2.30;;
20423;SDS011;10371;49.042;8.002;2023-04-04T01:42:07;3.80;;;2.50;;
20423;SDS011;10371;49.042;8.002;2023-04-04T01:43:08;3.47;;;2.50;;
20423;SDS011;10371;49.042;8.002;2023-04-04T01:44:09;2.53;;;2.20;;
20423;SDS011;10371;49.042;8.002;2023-04-04T01:45:09;6.00;;;2.73;;
20423;SDS011;10371;49.042;8.002;2023-04-04T01:46:10;3.73;;;2.30;;
20423;SDS011;10371;49.042;8.002;2023-04-04T01:47:11;2.83;;;2.23;;
20423;SDS011;10371;49.042;8.002;2023-04-04T01:48:12;3.83;;;2.60;;
20423;SDS011;10371;49.042;8.002;2023-04-04T01:49:12;2.70;;;2.50;;
20423;SDS011;10371;49.042;8.002;2023-04-04T01:50:12;3.97;;;2.50;;
20423;SDS011;10371;49.042;8.002;2023-04-04T01:51:12;3.20;;;2.67;;
20423;SDS011;10371;49.042;8.002;2023-04-04T01:52:13;4.27;;;3.00;;
20423;SDS011;10371;49.042;8.002;2023-04-04T01:53:14;3.27;;;2.57;;
20423;SDS011;10371;49.042;8.002;2023-04-04T01:54:14;3.40;;;2.43;;
20423;SDS011;10371;49.042;8.002;2023-04-04T01:55:15;3.47;;;2.70;;
20423;SDS011;10371;49.042;8.002;2023-04-04T01:56:15;2.77;;;2.13;;
20423;SDS011;10371;49.042;8.002;2023-04-04T01:57:16;3.70;;;2.50;;
20423;SDS011;10371;49.042;8.002;2023-04-04T01:58:16;3.23;;;2.30;;
20423;SDS011;10371;49.042;8.002;2023-04-04T01:59:16;3.67;;;2.70;;
20423;SDS011;10371;49.042;8.002;2023-04-04T02:00:17;3.13;;;2.50;;
20423;SDS011;10371;49.042;8.002;2023-04-04T02:01:17;4.60;;;2.60;;
20423;SDS011;10371;49.042;8.002;2023-04-04T02:02:18;3.23;;;2.53;;
20423;SDS011;10371;49.042;8.002;2023-04-04T02:03:19;3.00;;;2.30;;
20423;SDS011;10371;49.042;8.002;2023-04-04T02:04:19;4.07;;;2.53;;
20423;SDS011;10371;49.042;8.002;2023-04-04T02:05:20;2.93;;;2.40;;
20423;SDS011;10371;49.042;8.002;2023-04-04T02:06:20;3.13;;;2.30;;
20423;SDS011;10371;49.042;8.002;2023-04-04T02:07:20;3.00;;;2.30;;
20423;SDS011;10371;49.042;8.002;2023-04-04T02:08:20;3.50;;;2.47;;
20423;SDS011;10371;49.042;8.002;2023-04-04T02:09:21;3.07;;;2.67;;
20423;SDS011;10371;49.042;8.002;2023-04-04T02:10:21;2.43;;;2.20;;
20423;SDS011;10371;49.042;8.002;2023-04-04T02:11:21;3.23;;;2.30;;
20423;SDS011;10371;49.042;8.002;2023-04-04T02:12:22;3.40;;;2.50;;
20423;SDS011;10371;49.042;8.002;2023-04-04T02:13:22;4.13;;;2.57;;
20423;SDS011;10371;49.042;8.002;2023-04-04T02:14:23;3.23;;;2.50;;
20423;SDS011;10371;49.042;8.002;2023-04-04T02:15:23;3.93;;;2.37;;
20423;SDS011;10371;49.042;8.002;2023-04-04T02:16:24;2.90;;;2.33;;
20423;SDS011;10371;49.042;8.002;2023-04-04T02:17:24;3.27;;;2.47;;
20423;SDS011;10371;49.042;8.002;2023-04-04T02:18:27;3.07;;;2.30;;
20423;SDS011;10371;49.042;8.002;2023-04-04T02:19:27;3.80;;;2.43;;
20423;SDS011;10371;49.042;8.002;2023-04-04T02:20:28;4.27;;;2.40;;
20423;SDS011;10371;49.042;8.002;2023-04-04T02:21:28;4.73;;;2.53;;
20423;SDS011;10371;49.042;8.002;2023-04-04T02:22:28;4.50;;;2.50;;
20423;SDS011;10371;49.042;8.002;2023-04-04T02:23:29;3.07;;;2.50;;
20423;SDS011;10371;49.042;8.002;2023-04-04T02:24:29;4.17;;;2.50;;
20423;SDS011;10371;49.042;8.002;2023-04-04T02:25:30;3.27;;;2.40;;
20423;SDS011;10371;49.042;8.002;2023-04-04T02:26:30;2.80;;;2.30;;
20423;SDS011;10371;49.042;8.002;2023-04-04T02:27:30;2.83;;;2.27;;
20423;SDS011;10371;49.042;8.002;2023-04-04T02:28:30;3.67;;;2.60;;
20423;SDS011;10371;49.042;8.002;2023-04-04T02:29:31;3.43;;;2.30;;
20423;SDS011;10371;49.042;8.002;2023-04-04T02:30:31;4.17;;;2.70;;
20423;SDS011;10371;49.042;8.002;2023-04-04T02:31:32;3.43;;;2.60;;
20423;SDS011;10371;49.042;8.002;2023-04-04T02:32:33;3.17;;;2.30;;
20423;SDS011;10371;49.042;8.002;2023-04-04T02:33:33;3.37;;;2.50;;
20423;SDS011;10371;49.042;8.002;2023-04-04T02:34:33;2.97;;;2.33;;
20423;SDS011;10371;49.042;8.002;2023-04-04T02:35:33;2.40;;;2.20;;
20423;SDS011;10371;49.042;8.002;2023-04-04T02:36:34;3.83;;;2.30;;
20423;SDS011;10371;49.042;8.002;2023-04-04T02:37:35;3.13;;;2.50;;
20423;SDS011;10371;49.042;8.002;2023-04-04T02:38:35;2.73;;;2.37;;
20423;SDS011;10371;49.042;8.002;2023-04-04T02:39:35;4.67;;;2.67;;
20423;SDS011;10371;49.042;8.002;2023-04-04T02:40:36;3.33;;;2.33;;
20423;SDS011;10371;49.042;8.002;2023-04-04T02:41:38;4.20;;;2.43;;
20423;SDS011;10371;49.042;8.002;2023-04-04T02:42:42;4.93;;;2.50;;
20423;SDS011;10371;49.042;8.002;2023-04-04T02:43:43;2.87;;;2.40;;
20423;SDS011;10371;49.042;8.002;2023-04-04T02:44:43;3.77;;;2.60;;
20423;SDS011;10371;49.042;8.002;2023-04-04T02:45:46;3.83;;;2.50;;
20423;SDS011;10371;49.042;8.002;2023-04-04T02:46:47;3.50;;;2.03;;
20423;SDS011;10371;49.042;8.002;2023-04-04T02:47:50;3.67;;;2.43;;
20423;SDS011;10371;49.042;8.002;2023-04-04T02:48:50;3.23;;;2.67;;
20423;SDS011;10371;49.042;8.002;2023-04-04T02:49:51;3.50;;;2.50;;
20423;SDS011;10371;49.042;8.002;2023-04-04T02:50:51;3.30;;;2.30;;
20423;SDS011;10371;49.042;8.002;2023-04-04T02:51:51;4.67;;;2.60;;
20423;SDS011;10371;49.042;8.002;2023-04-04T02:52:51;2.70;;;2.33;;
20423;SDS011;10371;49.042;8.002;2023-04-04T02:53:53;2.47;;;2.20;;
20423;SDS011;10371;49.042;8.002;2023-04-04T02:54:54;4.10;;;2.70;;
20423;SDS011;10371;49.042;8.002;2023-04-04T02:55:54;3.73;;;2.30;;
20423;SDS011;10371;49.042;8.002;2023-04-04T02:56:54;2.80;;;2.13;;
20423;SDS011;10371;49.042;8.002;2023-04-04T02:57:55;3.60;;;2.77;;
20423;SDS011;10371;49.042;8.002;2023-04-04T02:58:55;4.07;;;2.70;;
20423;SDS011;10371;49.042;8.002;2023-04-04T02:59:56;3.20;;;2.40;;
20423;SDS011;10371;49.042;8.002;2023-04-04T03:00:56;3.20;;;2.20;;
20423;SDS011;10371;49.042;8.002;2023-04-04T03:01:56;4.00;;;2.40;;
20423;SDS011;10371;49.042;8.002;2023-04-04T03:02:56;3.60;;;2.70;;
20423;SDS011;10371;49.042;8.002;2023-04-04T03:03:57;2.40;;;2.20;;
20423;SDS011;10371;49.042;8.002;2023-04-04T03:04:57;3.77;;;2.43;;
20423;SDS011;10371;49.042;8.002;2023-04-04T03:05:58;2.97;;;2.50;;
20423;SDS011;10371;49.042;8.002;2023-04-04T03:06:59;3.87;;;2.60;;
20423;SDS011;10371;49.042;8.002;2023-04-04T03:07:59;3.63;;;2.70;;
20423;SDS011;10371;49.042;8.002;2023-04-04T03:08:59;4.40;;;2.40;;
20423;SDS011;10371;49.042;8.002;2023-04-04T03:10:00;4.87;;;2.60;;
20423;SDS011;10371;49.042;8.002;2023-04-04T03:11:00;2.53;;;2.30;;
20423;SDS011;10371;49.042;8.002;2023-04-04T03:12:01;3.73;;;2.60;;
20423;SDS011;10371;49.042;8.002;2023-04-04T03:13:03;3.13;;;2.63;;
20423;SDS011;10371;49.042;8.002;2023-04-04T03:14:03;3.30;;;2.40;;
20423;SDS011;10371;49.042;8.002;2023-04-04T03:15:04;2.90;;;2.30;;
20423;SDS011;10371;49.042;8.002;2023-04-04T03:16:06;3.53;;;2.63;;
20423;SDS011;10371;49.042;8.002;2023-04-04T03:17:07;3.83;;;2.70;;
20423;SDS011;10371;49.042;8.002;2023-04-04T03:18:09;3.80;;;2.80;;
20423;SDS011;10371;49.042;8.002;2023-04-04T03:19:09;2.63;;;2.13;;
20423;SDS011;10371;49.042;8.002;2023-04-04T03:20:11;3.33;;;2.53;;
20423;SDS011;10371;49.042;8.002;2023-04-04T03:21:12;3.57;;;2.53;;
20423;SDS011;10371;49.042;8.002;2023-04-04T03:22:12;3.33;;;2.47;;
20423;SDS011;10371;49.042;8.002;2023-04-04T03:23:12;2.90;;;2.50;;
20423;SDS011;10371;49.042;8.002;2023-04-04T03:24:12;2.90;;;2.40;;
20423;SDS011;10371;49.042;8.002;2023-04-04T03:25:13;3.10;;;2.47;;
20423;SDS011;10371;49.042;8.002;2023-04-04T03:26:13;3.20;;;2.43;;
20423;SDS011;10371;49.042;8.002;2023-04-04T03:27:14;4.17;;;2.23;;
20423;SDS011;10371;49.042;8.002;2023-04-04T03:28:15;2.83;;;2.50;;
20423;SDS011;10371;49.042;8.002;2023-04-04T03:29:15;4.57;;;2.50;;
20423;SDS011;10371;49.042;8.002;2023-04-04T03:30:16;3.00;;;2.57;;
20423;SDS011;10371;49.042;8.002;2023-04-04T03:31:16;3.73;;;2.40;;
20423;SDS011;10371;49.042;8.002;2023-04-04T03:32:16;3.00;;;2.40;;
20423;SDS011;10371;49.042;8.002;2023-04-04T03:33:17;3.77;;;2.70;;
20423;SDS011;10371;49.042;8.002;2023-04-04T03:34:18;3.70;;;2.67;;
20423;SDS011;10371;49.042;8.002;2023-04-04T03:35:18;2.70;;;2.47;;
20423;SDS011;10371;49.042;8.002;2023-04-04T03:36:18;3.87;;;2.50;;
20423;SDS011;10371;49.042;8.002;2023-04-04T03:37:19;3.87;;;2.60;;
20423;SDS011;10371;49.042;8.002;2023-04-04T03:38:19;2.77;;;2.50;;
20423;SDS011;10371;49.042;8.002;2023-04-04T03:39:20;3.43;;;2.50;;
20423;SDS011;10371;49.042;8.002;2023-04-04T03:40:20;3.17;;;2.43;;
20423;SDS011;10371;49.042;8.002;2023-04-04T03:41:20;3.60;;;2.60;;
20423;SDS011;10371;49.042;8.002;2023-04-04T03:42:21;2.67;;;2.40;;
20423;SDS011;10371;49.042;8.002;2023-04-04T03:43:21;4.20;;;2.70;;
20423;SDS011;10371;49.042;8.002;2023-04-04T03:44:21;3.20;;;2.50;;
20423;SDS011;10371;49.042;8.002;2023-04-04T03:45:22;3.83;;;2.70;;
20423;SDS011;10371;49.042;8.002;2023-04-04T03:46:22;3.70;;;2.70;;
20423;SDS011;10371;49.042;8.002;2023-04-04T03:47:23;3.37;;;2.47;;
20423;SDS011;10371;49.042;8.002;2023-04-04T03:48:23;4.20;;;2.50;;
20423;SDS011;10371;49.042;8.002;2023-04-04T03:49:23;3.13;;;2.53;;
20423;SDS011;10371;49.042;8.002;2023-04-04T03:50:24;4.30;;;2.80;;
20423;SDS011;10371;49.042;8.002;2023-04-04T03:51:24;3.07;;;2.50;;
20423;SDS011;10371;49.042;8.002;2023-04-04T03:52:26;4.33;;;2.60;;
20423;SDS011;10371;49.042;8.002;2023-04-04T03:53:26;3.83;;;2.50;;
20423;SDS011;10371;49.042;8.002;2023-04-04T03:54:27;3.57;;;2.57;;
20423;SDS011;10371;49.042;8.002;2023-04-04T03:55:28;3.93;;;2.90;;
20423;SDS011;10371;49.042;8.002;2023-04-04T03:56:29;2.90;;;2.60;;
20423;SDS011;10371;49.042;8.002;2023-04-04T03:57:30;3.70;;;2.60;;
20423;SDS011;10371;49.042;8.002;2023-04-04T03:58:33;5.10;;;2.60;;
20423;SDS011;10371;49.042;8.002;2023-04-04T03:59:34;2.80;;;2.40;;
20423;SDS011;10371;49.042;8.002;2023-04-04T04:00:34;3.20;;;2.67;;
20423;SDS011;10371;49.042;8.002;2023-04-04T04:01:35;3.47;;;2.50;;
20423;SDS011;10371;49.042;8.002;2023-04-04T04:02:35;2.77;;;2.47;;
20423;SDS011;10371;49.042;8.002;2023-04-04T04:03:35;3.13;;;2.83;;
20423;SDS011;10371;49.042;8.002;2023-04-04T04:04:36;5.13;;;2.60;;
20423;SDS011;10371;49.042;8.002;2023-04-04T04:05:36;2.70;;;2.50;;
20423;SDS011;10371;49.042;8.002;2023-04-04T04:06:36;3.57;;;2.70;;
20423;SDS011;10371;49.042;8.002;2023-04-04T04:07:37;4.63;;;2.87;;
20423;SDS011;10371;49.042;8.002;2023-04-04T04:08:37;4.30;;;2.87;;
20423;SDS011;10371;49.042;8.002;2023-04-04T04:09:37;3.07;;;2.70;;
20423;SDS011;10371;49.042;8.002;2023-04-04T04:10:38;2.70;;;2.37;;
20423;SDS011;10371;49.042;8.002;2023-04-04T04:11:38;3.97;;;2.90;;
20423;SDS011;10371;49.042;8.002;2023-04-04T04:12:38;2.80;;;2.60;;
20423;SDS011;10371;49.042;8.002;2023-04-04T04:13:39;4.43;;;2.90;;
20423;SDS011;10371;49.042;8.002;2023-04-04T04:14:39;4.83;;;2.80;;
20423;SDS011;10371;49.042;8.002;2023-04-04T04:15:39;3.63;;;2.77;;
20423;SDS011;10371;49.042;8.002;2023-04-04T04:16:40;3.53;;;2.60;;
20423;SDS011;10371;49.042;8.002;2023-04-04T04:17:40;2.70;;;2.50;;
20423;SDS011;10371;49.042;8.002;2023-04-04T04:18:41;3.57;;;2.60;;
20423;SDS011;10371;49.042;8.002;2023-04-04T04:19:41;5.10;;;3.10;;
20423;SDS011;10371;49.042;8.002;2023-04-04T04:20:41;4.43;;;3.03;;
20423;SDS011;10371;49.042;8.002;2023-04-04T04:21:41;3.23;;;2.83;;
20423;SDS011;10371;49.042;8.002;2023-04-04T04:22:46;4.13;;;2.80;;
20423;SDS011;10371;49.042;8.002;2023-04-04T04:23:46;4.00;;;2.80;;
20423;SDS011;10371;49.042;8.002;2023-04-04T04:24:46;3.20;;;2.90;;
20423;SDS011;10371;49.042;8.002;2023-04-04T04:25:46;3.27;;;2.60;;
20423;SDS011;10371;49.042;8.002;2023-04-04T04:26:47;3.30;;;3.00;;
20423;SDS011;10371;49.042;8.002;2023-04-04T04:27:47;4.83;;;3.47;;
20423;SDS011;10371;49.042;8.002;2023-04-04T04:28:47;5.17;;;3.10;;
20423;SDS011;10371;49.042;8.002;2023-04-04T04:29:48;3.20;;;2.90;;
20423;SDS011;10371;49.042;8.002;2023-04-04T04:30:48;3.53;;;2.87;;
20423;SDS011;10371;49.042;8.002;2023-04-04T04:31:48;5.67;;;3.10;;
20423;SDS011;10371;49.042;8.002;2023-04-04T04:32:49;4.40;;;2.90;;
20423;SDS011;10371;49.042;8.002;2023-04-04T04:33:49;3.17;;;2.87;;
20423;SDS011;10371;49.042;8.002;2023-04-04T04:34:49;3.97;;;2.87;;
20423;SDS011;10371;49.042;8.002;2023-04-04T04:35:50;5.70;;;3.23;;
20423;SDS011;10371;49.042;8.002;2023-04-04T04:36:50;5.07;;;3.10;;
20423;SDS011;10371;49.042;8.002;2023-04-04T04:37:51;3.60;;;3.07;;
20423;SDS011;10371;49.042;8.002;2023-04-04T04:38:52;4.57;;;2.83;;
20423;SDS011;10371;49.042;8.002;2023-04-04T04:39:52;3.07;;;2.77;;
20423;SDS011;10371;49.042;8.002;2023-04-04T04:40:52;4.13;;;3.30;;
20423;SDS011;10371;49.042;8.002;2023-04-04T04:41:52;3.50;;;3.20;;
20423;SDS011;10371;49.042;8.002;2023-04-04T04:42:53;6.10;;;3.43;;
20423;SDS011;10371;49.042;8.002;2023-04-04T04:43:56;3.90;;;3.37;;
20423;SDS011;10371;49.042;8.002;2023-04-04T04:44:56;14.03;;;3.67;;
20423;SDS011;10371;49.042;8.002;2023-04-04T04:45:57;3.40;;;3.10;;
20423;SDS011;10371;49.042;8.002;2023-04-04T04:46:57;6.50;;;3.50;;
20423;SDS011;10371;49.042;8.002;2023-04-04T04:47:57;3.87;;;3.07;;
20423;SDS011;10371;49.042;8.002;2023-04-04T04:48:57;3.83;;;3.27;;
20423;SDS011;10371;49.042;8.002;2023-04-04T04:49:58;4.33;;;3.17;;
20423;SDS011;10371;49.042;8.002;2023-04-04T04:50:58;4.07;;;3.40;;
20423;SDS011;10371;49.042;8.002;2023-04-04T04:51:58;3.77;;;2.97;;
20423;SDS011;10371;49.042;8.002;2023-04-04T04:52:59;5.57;;;3.40;;
20423;SDS011;10371;49.042;8.002;2023-04-04T04:53:59;4.60;;;3.20;;
20423;SDS011;10371;49.042;8.002;2023-04-04T04:54:59;3.27;;;2.97;;
20423;SDS011;10371;49.042;8.002;2023-04-04T04:56:00;3.67;;;3.37;;
20423;SDS011;10371;49.042;8.002;2023-04-04T04:57:00;3.40;;;3.00;;
20423;SDS011;10371;49.042;8.002;2023-04-04T04:58:01;3.40;;;3.10;;
20423;SDS011;10371;49.042;8.002;2023-04-04T04:59:02;3.50;;;3.20;;
20423;SDS011;10371;49.042;8.002;2023-04-04T05:00:03;4.47;;;3.20;;
20423;SDS011;10371;49.042;8.002;2023-04-04T05:01:04;4.30;;;3.30;;
20423;SDS011;10371;49.042;8.002;2023-04-04T05:02:04;4.27;;;3.20;;
20423;SDS011;10371;49.042;8.002;2023-04-04T05:03:04;4.90;;;3.73;;
20423;SDS011;10371;49.042;8.002;2023-04-04T05:04:05;5.43;;;3.67;;
20423;SDS011;10371;49.042;8.002;2023-04-04T05:05:06;5.00;;;3.67;;
20423;SDS011;10371;49.042;8.002;2023-04-04T05:06:06;4.60;;;4.20;;
20423;SDS011;10371;49.042;8.002;2023-04-04T05:07:07;4.03;;;3.47;;
20423;SDS011;10371;49.042;8.002;2023-04-04T05:08:07;5.20;;;3.20;;
20423;SDS011;10371;49.042;8.002;2023-04-04T05:09:07;4.73;;;3.80;;
20423;SDS011;10371;49.042;8.002;2023-04-04T05:10:08;4.17;;;3.50;;
20423;SDS011;10371;49.042;8.002;2023-04-04T05:11:08;4.97;;;3.10;;
20423;SDS011;10371;49.042;8.002;2023-04-04T05:12:08;5.20;;;3.40;;
20423;SDS011;10371;49.042;8.002;2023-04-04T05:13:08;3.90;;;3.27;;
20423;SDS011;10371;49.042;8.002;2023-04-04T05:14:09;5.47;;;3.53;;
20423;SDS011;10371;49.042;8.002;2023-04-04T05:15:10;3.30;;;3.00;;
20423;SDS011;10371;49.042;8.002;2023-04-04T05:16:11;3.73;;;3.43;;
20423;SDS011;10371;49.042;8.002;2023-04-04T05:17:12;3.80;;;3.27;;
20423;SDS011;10371;49.042;8.002;2023-04-04T05:18:12;4.00;;;3.17;;
20423;SDS011;10371;49.042;8.002;2023-04-04T05:19:12;4.87;;;3.47;;
20423;SDS011;10371;49.042;8.002;2023-04-04T05:20:12;3.40;;;3.10;;
20423;SDS011;10371;49.042;8.002;2023-04-04T05:21:13;3.73;;;3.43;;
20423;SDS011;10371;49.042;8.002;2023-04-04T05:22:13;3.47;;;3.07;;
20423;SDS011;10371;49.042;8.002;2023-04-04T05:23:13;3.67;;;3.27;;
20423;SDS011;10371;49.042;8.002;2023-04-04T05:24:13;4.53;;;3.10;;
20423;SDS011;10371;49.042;8.002;2023-04-04T05:25:16;4.17;;;3.50;;
20423;SDS011;10371;49.042;8.002;2023-04-04T05:26:16;3.87;;;3.30;;
20423;SDS011;10371;49.042;8.002;2023-04-04T05:27:16;3.73;;;3.30;;
20423;SDS011;10371;49.042;8.002;2023-04-04T05:28:17;5.43;;;3.07;;
20423;SDS011;10371;49.042;8.002;2023-04-04T05:29:17;3.60;;;2.93;;
20423;SDS011;10371;49.042;8.002;2023-04-04T05:30:17;3.50;;;3.20;;
20423;SDS011;10371;49.042;8.002;2023-04-04T05:31:17;3.30;;;2.97;;
20423;SDS011;10371;49.042;8.002;2023-04-04T05:32:18;4.47;;;3.20;;
20423;SDS011;10371;49.042;8.002;2023-04-04T05:33:18;3.83;;;3.10;;
20423;SDS011;10371;49.042;8.002;2023-04-04T05:34:19;4.83;;;3.00;;
20423;SDS011;10371;49.042;8.002;2023-04-04T05:35:19;4.93;;;2.97;;
20423;SDS011;10371;49.042;8.002;2023-04-04T05:36:19;3.40;;;3.10;;
20423;SDS011;10371;49.042;8.002;2023-04-04T05:37:19;5.30;;;3.13;;
20423;SDS011;10371;49.042;8.002;2023-04-04T05:38:20;3.30;;;3.00;;
20423;SDS011;10371;49.042;8.002;2023-04-04T05:39:20;4.20;;;3.20;;
20423;SDS011;10371;49.042;8.002;2023-04-04T05:40:20;3.63;;;3.10;;
20423;SDS011;10371;49.042;8.002;2023-04-04T05:41:21;3.17;;;2.87;;
20423;SDS011;10371;49.042;8.002;2023-04-04T05:42:21;5.00;;;3.20;;
20423;SDS011;10371;49.042;8.002;2023-04-04T05:43:22;3.40;;;3.00;;
20423;SDS011;10371;49.042;8.002;2023-04-04T05:44:22;4.40;;;3.20;;
20423;SDS011;10371;49.042;8.002;2023-04-04T05:45:23;3.53;;;3.07;;
20423;SDS011;10371;49.042;8.002;2023-04-04T05:46:23;4.37;;;3.27;;
20423;SDS011;10371;49.042;8.002;2023-04-04T05:47:23;3.30;;;3.00;;
20423;SDS011;10371;49.042;8.002;2023-04-04T05:48:24;3.70;;;3.10;;
20423;SDS011;10371;49.042;8.002;2023-04-04T05:49:24;4.93;;;3.10;;
20423;SDS011;10371;49.042;8.002;2023-04-04T05:50:24;4.43;;;2.90;;
20423;SDS011;10371;49.042;8.002;2023-04-04T05:51:26;3.47;;;3.00;;
20423;SDS011;10371;49.042;8.002;2023-04-04T05:52:26;5.77;;;2.80;;
20423;SDS011;10371;49.042;8.002;2023-04-04T05:53:26;3.73;;;3.10;;
20423;SDS011;10371;49.042;8.002;2023-04-04T05:54:27;3.37;;;2.90;;
20423;SDS011;10371;49.042;8.002;2023-04-04T05:55:27;3.73;;;3.17;;
20423;SDS011;10371;49.042;8.002;2023-04-04T05:56:28;3.97;;;3.30;;
20423;SDS011;10371;49.042;8.002;2023-04-04T05:57:28;4.63;;;3.30;;
20423;SDS011;10371;49.042;8.002;2023-04-04T05:58:28;3.67;;;3.00;;
20423;SDS011;10371;49.042;8.002;2023-04-04T05:59:29;3.13;;;2.83;;
20423;SDS011;10371;49.042;8.002;2023-04-04T06:00:29;4.50;;;2.97;;
20423;SDS011;10371;49.042;8.002;2023-04-04T06:01:29;3.73;;;3.07;;
20423;SDS011;10371;49.042;8.002;2023-04-04T06:02:30;3.40;;;3.10;;
20423;SDS011;10371;49.042;8.002;2023-04-04T06:03:30;3.40;;;2.97;;
20423;SDS011;10371;49.042;8.002;2023-04-04T06:04:31;5.50;;;3.10;;
20423;SDS011;10371;49.042;8.002;2023-04-04T06:05:31;4.07;;;2.77;;
20423;SDS011;10371;49.042;8.002;2023-04-04T06:06:32;4.53;;;3.37;;
20423;SDS011;10371;49.042;8.002;2023-04-04T06:07:33;2.97;;;2.77;;
20423;SDS011;10371;49.042;8.002;2023-04-04T06:08:33;4.83;;;3.10;;